Time;durP1;ratioP1;P1;durP2;ratioP2;P2;SDS_P1;SDS_P2;PMS_P1;PMS_P2;Temp;Humidity;BMP_temperature;BMP_pressure;BME280_temperature;BME280_humidity;BME280_pressure;Samples;Min_cycle;Max_cycle;Signal;HPM_P1;HPM_P2
2021/05/27 00:00:37;;;;;;;16.05;10.77;;;11.40;99.90;;;;;;5067326;28;20039;-93
2021/05/27 00:03:05;;;;;;;20.15;11.32;;;11.40;99.90;;;;;;5057634;28;20029;-93
2021/05/27 00:05:32;;;;;;;18.67;10.82;;;11.40;99.90;;;;;;5063591;28;20017;-94
2021/05/27 00:08:05;;;;;;;20.58;10.18;;;11.30;99.90;;;;;;5061274;28;20031;-95
2021/05/27 00:10:31;;;;;;;;;;;11.30;99.90;;;;;;5066752;28;20068;-94
2021/05/27 00:13:17;;;;;;;13.73;9.23;;;11.30;99.90;;;;;;5068555;28;19999;-92
2021/05/27 00:15:43;;;;;;;23.15;11.00;;;11.30;99.90;;;;;;5054353;28;20528;-95
2021/05/27 00:18:10;;;;;;;17.15;9.65;;;11.30;99.90;;;;;;5052507;28;20021;-94
2021/05/27 00:20:37;;;;;;;15.20;8.70;;;11.30;99.90;;;;;;5072711;28;20039;-94
2021/05/27 00:23:03;;;;;;;13.93;8.63;;;11.30;99.90;;;;;;5067229;28;20116;-94
2021/05/27 00:25:29;;;;;;;17.08;9.73;;;11.30;99.90;;;;;;5055924;28;20155;-93
2021/05/27 00:27:55;;;;;;;14.50;9.52;;;11.20;99.90;;;;;;5063529;28;20067;-94
2021/05/27 00:30:21;;;;;;;18.35;10.10;;;11.20;99.90;;;;;;5067400;28;20025;-94
2021/05/27 00:32:48;;;;;;;13.45;8.10;;;11.10;99.90;;;;;;5054991;28;20116;-93
2021/05/27 00:35:14;;;;;;;11.88;8.02;;;11.10;99.90;;;;;;5066727;28;20039;-94
2021/05/27 00:37:41;;;;;;;15.75;8.85;;;11.10;99.90;;;;;;5053089;28;20381;-93
2021/05/27 00:40:10;;;;;;;14.65;8.75;;;11.10;99.90;;;;;;5058641;28;20071;-93
2021/05/27 00:42:36;;;;;;;14.02;9.35;;;11.00;99.90;;;;;;5066166;28;20043;-94
2021/05/27 00:45:11;;;;;;;18.77;9.18;;;11.00;99.90;;;;;;5050034;28;20560;-93
2021/05/27 00:47:38;;;;;;;15.77;9.32;;;11.00;99.90;;;;;;5066233;28;20023;-95
2021/05/27 00:50:06;;;;;;;19.00;8.73;;;11.00;99.90;;;;;;5072735;28;20047;-92
2021/05/27 00:52:33;;;;;;;16.02;9.35;;;11.00;99.90;;;;;;5069626;28;20051;-95
2021/05/27 00:55:04;;;;;;;13.55;9.57;;;11.00;99.90;;;;;;5059393;28;20021;-95
2021/05/27 00:57:31;;;;;;;14.93;9.73;;;10.90;99.90;;;;;;5060491;28;20060;-92
2021/05/27 00:59:57;;;;;;;15.30;9.55;;;10.80;99.90;;;;;;5061776;28;20052;-93
2021/05/27 01:02:23;;;;;;;17.67;9.68;;;10.80;99.90;;;;;;5067561;28;20111;-93
2021/05/27 01:04:48;;;;;;;16.00;8.55;;;10.80;99.90;;;;;;5055398;28;20048;-93
2021/05/27 01:07:14;;;;;;;16.42;9.70;;;10.80;99.90;;;;;;5063413;28;20044;-95
2021/05/27 01:09:43;;;;;;;18.80;9.82;;;10.80;99.90;;;;;;5068358;28;20021;-95
2021/05/27 01:12:11;;;;;;;17.77;9.43;;;10.80;99.90;;;;;;5063966;28;20035;-94
2021/05/27 01:17:24;;;;;;;21.23;10.25;;;10.70;99.90;;;;;;5068118;28;20503;-96
2021/05/27 01:19:55;;;;;;;19.58;10.23;;;10.70;99.90;;;;;;5063329;28;20043;-94
2021/05/27 01:22:21;;;;;;;16.10;9.75;;;10.60;99.90;;;;;;5066035;28;20029;-95
2021/05/27 01:24:49;;;;;;;18.38;11.13;;;10.60;99.90;;;;;;5067364;28;20138;-94
2021/05/27 01:27:19;;;;;;;17.92;9.75;;;10.60;99.90;;;;;;5073965;28;20028;-95
2021/05/27 01:29:51;;;;;;;16.27;10.15;;;10.50;99.90;;;;;;5067465;28;20191;-94
2021/05/27 01:32:17;;;;;;;20.75;9.25;;;10.50;99.90;;;;;;5064912;28;20025;-93
2021/05/27 01:34:43;;;;;;;20.52;9.82;;;10.40;99.90;;;;;;5066780;28;20103;-92
2021/05/27 01:37:10;;;;;;;18.48;9.48;;;10.30;99.90;;;;;;5066790;28;20086;-96
2021/05/27 01:39:37;;;;;;;16.05;9.27;;;10.30;99.90;;;;;;5075413;28;20100;-93
2021/05/27 01:42:07;;;;;;;15.07;8.73;;;10.20;99.90;;;;;;5065663;28;20041;-96
2021/05/27 01:44:34;;;;;;;13.15;7.85;;;10.30;99.90;;;;;;5040676;28;20033;-96
2021/05/27 01:47:01;;;;;;;12.68;7.55;;;10.20;99.90;;;;;;5054725;28;20210;-96
2021/05/27 01:49:30;;;;;;;10.60;7.28;;;10.20;99.90;;;;;;5073519;28;20047;-96
2021/05/27 01:52:08;;;;;;;15.73;8.30;;;10.20;99.90;;;;;;5081180;28;20032;-96
2021/05/27 01:54:40;;;;;;;22.40;9.82;;;10.30;99.90;;;;;;5081440;28;20076;-96
2021/05/27 01:57:08;;;;;;;18.13;9.25;;;10.20;99.90;;;;;;5060244;28;20067;-96
2021/05/27 01:59:34;;;;;;;15.80;9.48;;;10.10;99.90;;;;;;5059346;28;20048;-95
2021/05/27 02:02:05;;;;;;;16.83;10.30;;;10.10;99.90;;;;;;5073288;28;20020;-96
2021/05/27 02:04:32;;;;;;;18.00;10.50;;;10.10;99.90;;;;;;5065058;28;20025;-96
2021/05/27 02:06:57;;;;;;;16.98;10.25;;;10.00;99.90;;;;;;5078166;28;20028;-96
2021/05/27 02:09:25;;;;;;;15.43;9.45;;;10.00;99.90;;;;;;5066071;28;20028;-95
2021/05/27 02:11:55;;;;;;;17.73;9.85;;;10.00;99.90;;;;;;5068480;28;20033;-95
2021/05/27 02:14:27;;;;;;;19.58;9.98;;;9.90;99.90;;;;;;5071391;28;20467;-96
2021/05/27 02:16:53;;;;;;;18.77;10.75;;;10.00;99.90;;;;;;5060903;28;20523;-96
2021/05/27 02:19:20;;;;;;;14.70;9.23;;;9.90;99.90;;;;;;5070400;28;20029;-95
2021/05/27 02:21:46;;;;;;;16.67;9.48;;;10.00;99.90;;;;;;5039877;28;20029;-96
2021/05/27 02:24:12;;;;;;;14.75;8.93;;;10.00;99.90;;;;;;5070988;28;20025;-96
2021/05/27 02:26:41;;;;;;;20.13;9.25;;;9.90;99.90;;;;;;5043121;28;20032;-96
2021/05/27 02:29:07;;;;;;;17.25;9.25;;;9.90;99.90;;;;;;5054823;28;20091;-96
2021/05/27 02:31:35;;;;;;;17.75;9.27;;;9.90;99.90;;;;;;5063870;28;20032;-96
2021/05/27 02:34:01;;;;;;;16.15;8.93;;;9.90;99.90;;;;;;5057292;28;20040;-96
2021/05/27 02:36:31;;;;;;;16.23;8.98;;;9.90;99.90;;;;;;5042841;28;20025;-96
2021/05/27 02:39:04;;;;;;;16.33;9.52;;;9.90;99.90;;;;;;5071630;28;20482;-96
2021/05/27 02:41:30;;;;;;;15.60;10.10;;;9.90;99.90;;;;;;5063936;28;20032;-96
2021/05/27 02:43:57;;;;;;;17.80;10.85;;;9.90;99.90;;;;;;5065051;28;20440;-96
2021/05/27 02:46:23;;;;;;;13.68;9.68;;;9.90;99.90;;;;;;5056048;28;20114;-96
2021/05/27 02:48:49;;;;;;;19.25;10.52;;;9.80;99.90;;;;;;5040055;28;20503;-96
2021/05/27 02:51:14;;;;;;;23.70;12.57;;;9.90;99.90;;;;;;5062615;28;20024;-96
2021/05/27 02:53:40;;;;;;;21.88;11.63;;;9.90;99.90;;;;;;5068307;28;20055;-95
2021/05/27 02:56:06;;;;;;;20.63;12.00;;;9.80;99.90;;;;;;5053384;28;20024;-96
2021/05/27 02:58:34;;;;;;;15.50;10.00;;;9.80;99.90;;;;;;5061631;28;20041;-96
2021/05/27 03:01:02;;;;;;;18.50;10.20;;;9.80;99.90;;;;;;5074404;28;20028;-96
2021/05/27 03:03:33;;;;;;;23.58;12.45;;;9.80;99.90;;;;;;5062344;28;20037;-96
2021/05/27 03:05:59;;;;;;;21.27;12.15;;;9.80;99.90;;;;;;5064901;28;20025;-96
2021/05/27 03:08:27;;;;;;;25.58;11.85;;;9.80;99.90;;;;;;5071480;28;20087;-95
2021/05/27 03:10:53;;;;;;;25.13;12.80;;;9.70;99.90;;;;;;5042358;28;20040;-96
2021/05/27 03:13:19;;;;;;;25.38;12.73;;;9.70;99.90;;;;;;5076772;28;20065;-96
2021/05/27 03:15:45;;;;;;;22.13;12.95;;;9.70;99.90;;;;;;5066293;28;20507;-96
2021/05/27 03:18:17;;;;;;;22.58;12.27;;;9.70;99.90;;;;;;5068737;28;20024;-96
2021/05/27 03:20:43;;;;;;;20.00;11.02;;;9.70;99.90;;;;;;5064718;28;20024;-96
2021/05/27 03:23:09;;;;;;;20.20;11.63;;;9.70;99.90;;;;;;5072409;28;20025;-96
2021/05/27 03:25:34;;;;;;;23.73;12.10;;;9.70;99.90;;;;;;5064486;28;20028;-96
2021/05/27 03:28:02;;;;;;;23.15;11.07;;;9.70;99.90;;;;;;5063750;28;20017;-95
2021/05/27 03:30:31;;;;;;;23.15;12.77;;;9.70;99.90;;;;;;5073420;28;20096;-96
2021/05/27 03:32:58;;;;;;;27.25;13.18;;;9.70;99.90;;;;;;5060215;28;20036;-96
2021/05/27 03:35:24;;;;;;;25.42;12.85;;;9.70;99.90;;;;;;5071932;28;20052;-96
2021/05/27 03:37:51;;;;;;;19.55;11.15;;;9.70;99.90;;;;;;5066891;28;20077;-96
2021/05/27 03:40:23;;;;;;;24.52;12.30;;;9.70;99.90;;;;;;5043465;28;20116;-96
2021/05/27 03:42:52;;;;;;;23.55;11.38;;;9.70;99.90;;;;;;5061499;28;20029;-96
2021/05/27 03:45:30;;;;;;;21.10;11.45;;;9.70;99.90;;;;;;5072348;28;20082;-96
2021/05/27 03:47:57;;;;;;;21.63;11.52;;;9.70;99.90;;;;;;5051652;28;20029;-95
2021/05/27 03:50:31;;;;;;;19.73;12.20;;;9.60;99.90;;;;;;5060243;28;20033;-94
2021/05/27 03:53:00;;;;;;;20.98;12.32;;;9.60;99.90;;;;;;5075674;28;20100;-95
2021/05/27 03:55:27;;;;;;;22.50;12.48;;;9.60;99.90;;;;;;5081138;28;20025;-92
2021/05/27 03:57:53;;;;;;;21.13;10.43;;;9.60;99.90;;;;;;5068012;28;20020;-95
2021/05/27 04:00:46;;;;;;;18.90;11.10;;;9.60;99.90;;;;;;5060758;28;20049;-95
2021/05/27 04:03:14;;;;;;;21.95;11.65;;;9.60;99.90;;;;;;5060897;28;20069;-95
2021/05/27 04:08:26;;;;;;;21.15;11.25;;;9.60;99.90;;;;;;5070766;28;20115;-95
2021/05/27 04:10:53;;;;;;;17.52;10.10;;;9.60;99.90;;;;;;5042004;28;20040;-95
2021/05/27 04:13:19;;;;;;;20.23;10.70;;;9.60;99.90;;;;;;5069549;28;20057;-95
2021/05/27 04:15:48;;;;;;;18.60;10.98;;;9.70;99.90;;;;;;5056105;28;20032;-95
2021/05/27 04:18:18;;;;;;;22.17;12.13;;;9.60;99.90;;;;;;5070275;28;20028;-95
2021/05/27 04:20:51;;;;;;;17.05;10.70;;;9.60;99.90;;;;;;5057593;28;20149;-96
2021/05/27 04:23:36;;;;;;;15.80;8.90;;;9.60;99.90;;;;;;5068202;28;20075;-96
2021/05/27 04:26:46;;;;;;;16.73;9.55;;;9.70;99.90;;;;;;5076261;28;20282;-96
2021/05/27 04:30:12;;;;;;;19.00;9.30;;;9.70;99.90;;;;;;5011047;28;20050;-95
2021/05/27 04:35:22;;;;;;;18.77;10.52;;;9.70;99.90;;;;;;5056036;28;20044;-94
2021/05/27 04:37:52;;;;;;;21.10;10.65;;;9.70;99.90;;;;;;5064185;28;20122;-94
2021/05/27 04:40:20;;;;;;;18.63;9.93;;;9.70;99.90;;;;;;5042756;28;20044;-94
2021/05/27 04:42:45;;;;;;;17.83;10.05;;;9.70;99.90;;;;;;5070415;28;20052;-94
2021/05/27 04:45:13;;;;;;;21.95;10.93;;;9.70;99.90;;;;;;5058443;28;20052;-93
2021/05/27 04:47:39;;;;;;;22.40;10.52;;;9.70;99.90;;;;;;5064784;28;20053;-94
2021/05/27 04:50:08;;;;;;;20.55;10.75;;;9.70;99.90;;;;;;5053587;28;20064;-94
2021/05/27 04:52:53;;;;;;;21.27;10.82;;;9.70;99.90;;;;;;5070676;28;20035;-95
2021/05/27 04:55:23;;;;;;;17.88;10.35;;;9.60;99.90;;;;;;5046788;28;20028;-95
2021/05/27 04:57:51;;;;;;;20.65;11.57;;;9.70;99.90;;;;;;5051301;28;20032;-96
2021/05/27 05:00:24;;;;;;;25.10;11.55;;;9.60;99.90;;;;;;5072248;28;20029;-95
2021/05/27 05:02:53;;;;;;;24.17;12.00;;;9.70;99.90;;;;;;5076045;28;20078;-95
2021/05/27 05:05:22;;;;;;;23.13;10.55;;;9.70;99.90;;;;;;5060098;28;20057;-94
2021/05/27 05:07:52;;;;;;;18.58;11.52;;;9.70;99.90;;;;;;5056285;28;20062;-95
2021/05/27 05:10:21;;;;;;;23.60;12.18;;;9.70;99.90;;;;;;5063983;28;20041;-95
2021/05/27 05:12:51;;;;;;;17.52;10.10;;;9.70;99.90;;;;;;5063285;28;20025;-95
2021/05/27 05:15:25;;;;;;;20.27;9.98;;;9.70;99.90;;;;;;5083334;28;20066;-96
2021/05/27 05:18:03;;;;;;;18.13;10.60;;;9.70;99.90;;;;;;5072877;28;20029;-95
2021/05/27 05:20:38;;;;;;;22.33;11.98;;;9.70;99.90;;;;;;5060509;28;20040;-93
2021/05/27 05:23:09;;;;;;;17.73;10.68;;;9.70;99.90;;;;;;5061203;28;20495;-94
2021/05/27 05:25:40;;;;;;;18.35;9.93;;;9.70;99.90;;;;;;5056356;28;20029;-94
2021/05/27 05:28:13;;;;;;;21.63;11.50;;;9.80;99.90;;;;;;5043412;28;20025;-94
2021/05/27 05:30:41;;;;;;;20.48;11.35;;;9.70;99.90;;;;;;5058270;28;20036;-95
2021/05/27 05:33:08;;;;;;;22.45;11.30;;;9.70;99.90;;;;;;5061108;28;20107;-94
2021/05/27 05:35:36;;;;;;;20.90;10.60;;;9.70;99.90;;;;;;5060742;28;20090;-93
2021/05/27 05:38:13;;;;;;;18.95;9.75;;;9.70;99.90;;;;;;5066393;28;20028;-93
2021/05/27 05:40:40;;;;;;;18.77;10.35;;;9.80;99.90;;;;;;5055643;28;20093;-94
2021/05/27 05:43:07;;;;;;;20.05;11.15;;;9.80;99.90;;;;;;5060064;28;20029;-95
2021/05/27 05:45:34;;;;;;;16.65;9.90;;;9.80;99.90;;;;;;5069083;28;20033;-95
2021/05/27 05:48:02;;;;;;;20.85;11.23;;;9.80;99.90;;;;;;5068054;28;20016;-94
2021/05/27 05:50:47;;;;;;;18.42;10.07;;;9.80;99.90;;;;;;5045079;28;20044;-94
2021/05/27 05:53:23;;;;;;;17.85;9.02;;;9.80;99.90;;;;;;5044241;28;20106;-93
2021/05/27 05:55:55;;;;;;;22.17;11.55;;;9.80;99.90;;;;;;5055645;28;20039;-94
2021/05/27 05:58:23;;;;;;;25.33;11.70;;;9.90;99.90;;;;;;5044164;28;20499;-96
2021/05/27 06:00:52;;;;;;;17.08;10.70;;;9.90;99.90;;;;;;5060200;28;20431;-95
2021/05/27 06:03:19;;;;;;;23.35;10.38;;;9.90;99.90;;;;;;5029954;28;20045;-95
2021/05/27 06:05:48;;;;;;;19.10;9.70;;;9.90;99.90;;;;;;5066211;28;20461;-95
2021/05/27 06:08:20;;;;;;;19.95;10.43;;;9.90;99.90;;;;;;5070187;28;20032;-95
2021/05/27 06:10:49;;;;;;;22.08;11.00;;;9.90;99.90;;;;;;5058551;28;20546;-95
2021/05/27 06:13:18;;;;;;;18.35;10.25;;;9.90;99.90;;;;;;5061763;28;20087;-95
2021/05/27 06:15:44;;;;;;;18.08;10.35;;;9.90;99.90;;;;;;5059475;28;20058;-95
2021/05/27 06:18:10;;;;;;;17.88;9.93;;;9.90;99.90;;;;;;5062986;28;20108;-95
2021/05/27 06:20:40;;;;;;;20.73;10.70;;;9.90;99.90;;;;;;5073314;28;20021;-94
2021/05/27 06:23:06;;;;;;;20.40;9.90;;;9.90;99.90;;;;;;5026704;28;20025;-94
2021/05/27 06:25:33;;;;;;;16.15;9.15;;;9.90;99.90;;;;;;5051068;28;20040;-94
2021/05/27 06:27:59;;;;;;;20.85;10.75;;;9.90;99.90;;;;;;5065431;28;20029;-93
2021/05/27 06:30:28;;;;;;;19.52;9.73;;;10.00;99.90;;;;;;5057544;28;20094;-94
2021/05/27 06:32:58;;;;;;;19.23;10.02;;;9.90;99.90;;;;;;5055244;28;20074;-93
2021/05/27 06:35:27;;;;;;;18.00;8.88;;;9.90;99.90;;;;;;5068458;28;20025;-93
2021/05/27 06:37:54;;;;;;;16.45;7.85;;;9.90;99.90;;;;;;5046469;28;20391;-93
2021/05/27 06:40:25;;;;;;;16.05;8.23;;;10.00;99.90;;;;;;5045318;28;20086;-94
2021/05/27 06:42:50;;;;;;;14.35;7.85;;;10.00;99.90;;;;;;5067475;28;20032;-93
2021/05/27 06:45:18;;;;;;;14.02;7.85;;;10.00;99.90;;;;;;5064200;28;20025;-94
2021/05/27 06:47:45;;;;;;;17.02;9.05;;;10.00;99.90;;;;;;5033768;28;20037;-94
2021/05/27 06:50:14;;;;;;;11.93;7.00;;;10.00;99.90;;;;;;5060658;28;20459;-93
2021/05/27 06:52:40;;;;;;;13.65;6.93;;;10.10;99.90;;;;;;5063381;28;20027;-95
2021/05/27 06:55:07;;;;;;;16.67;8.25;;;10.10;99.90;;;;;;5064318;28;20037;-93
2021/05/27 06:57:32;;;;;;;15.27;7.80;;;10.10;99.90;;;;;;5064210;28;20028;-93
2021/05/27 06:59:58;;;;;;;12.45;7.20;;;10.20;99.90;;;;;;5065971;28;20404;-95
2021/05/27 07:02:28;;;;;;;20.02;7.90;;;10.20;99.90;;;;;;5065109;28;20035;-92
2021/05/27 07:04:55;;;;;;;14.57;7.25;;;10.20;99.90;;;;;;5065932;28;20040;-93
2021/05/27 07:07:24;;;;;;;16.13;7.95;;;10.20;99.90;;;;;;5027930;28;20476;-94
2021/05/27 07:10:04;;;;;;;13.07;7.88;;;10.20;99.90;;;;;;5062078;28;20178;-93
2021/05/27 07:12:36;;;;;;;12.73;6.03;;;10.20;99.90;;;;;;5064617;28;20101;-92
2021/05/27 07:15:03;;;;;;;12.73;6.82;;;10.30;99.90;;;;;;5060297;28;20052;-92
2021/05/27 07:17:31;;;;;;;16.92;7.75;;;10.30;99.90;;;;;;5062468;28;20071;-93
2021/05/27 07:19:58;;;;;;;15.57;7.07;;;10.30;99.90;;;;;;5046805;28;20215;-93
2021/05/27 07:22:24;;;;;;;16.95;8.00;;;10.30;99.90;;;;;;5043856;28;20102;-92
2021/05/27 07:24:49;;;;;;;13.93;7.40;;;10.30;99.90;;;;;;5064025;28;20465;-92
2021/05/27 07:27:17;;;;;;;17.20;8.13;;;10.30;99.90;;;;;;5069102;28;20056;-92
2021/05/27 07:29:43;;;;;;;15.18;8.38;;;10.30;99.90;;;;;;5062536;28;20485;-92
2021/05/27 07:32:10;;;;;;;13.85;7.20;;;10.30;99.90;;;;;;5064609;28;20055;-91
2021/05/27 07:34:37;;;;;;;13.68;7.45;;;10.20;99.90;;;;;;5054986;28;20032;-93
2021/05/27 07:37:26;;;;;;;;;;;;;;;;;;;;;
2021/05/27 07:39:53;;;;;;;14.05;8.13;;;10.30;99.90;;;;;;5059745;28;20032;-93
2021/05/27 07:42:23;;;;;;;16.45;8.38;;;10.30;99.90;;;;;;5056919;28;20113;-94
2021/05/27 07:44:55;;;;;;;16.45;7.22;;;10.30;99.90;;;;;;5067033;28;20044;-93
2021/05/27 07:47:37;;;;;;;15.98;7.53;;;10.30;99.90;;;;;;5042555;28;20380;-93
2021/05/27 07:50:08;;;;;;;16.45;7.80;;;10.30;99.90;;;;;;5058098;28;20040;-93
2021/05/27 07:52:36;;;;;;;14.45;7.15;;;10.30;99.90;;;;;;5035008;28;20071;-94
2021/05/27 07:55:08;;;;;;;17.90;8.20;;;10.40;99.90;;;;;;5056093;28;20029;-95
2021/05/27 07:57:39;;;;;;;16.38;7.35;;;10.40;99.90;;;;;;5065513;28;20074;-94
2021/05/27 08:00:09;;;;;;;11.98;6.22;;;10.40;99.90;;;;;;5061007;28;20112;-94
2021/05/27 08:02:35;;;;;;;14.32;7.55;;;10.50;99.90;;;;;;5059560;28;20048;-93
2021/05/27 08:05:01;;;;;;;15.15;6.85;;;10.50;99.90;;;;;;5064274;28;20059;-93
2021/05/27 08:07:27;;;;;;;15.82;6.65;;;10.50;99.90;;;;;;5060075;28;20029;-94
2021/05/27 08:10:00;;;;;;;17.23;7.28;;;10.50;99.90;;;;;;5064671;28;20063;-92
2021/05/27 08:12:46;;;;;;;13.93;6.93;;;10.60;99.90;;;;;;5068628;28;20034;-93
2021/05/27 08:15:33;;;;;;;;;;;;;;;;;;;;;
2021/05/27 08:18:00;;;;;;;13.95;6.55;;;10.50;99.90;;;;;;5065305;28;20029;-94
2021/05/27 08:20:37;;;;;;;14.85;7.18;;;10.50;99.90;;;;;;5055716;28;20542;-94
2021/05/27 08:23:06;;;;;;;14.63;6.20;;;10.50;99.90;;;;;;5055260;28;20072;-94
2021/05/27 08:25:55;;;;;;;11.43;6.40;;;10.60;99.90;;;;;;5072221;28;20397;-95
2021/05/27 08:28:28;;;;;;;12.45;6.93;;;10.60;99.90;;;;;;5042105;28;20412;-95
2021/05/27 08:30:54;;;;;;;14.25;6.38;;;10.60;99.90;;;;;;5071962;28;20090;-95
2021/05/27 08:33:21;;;;;;;15.15;6.45;;;10.60;99.90;;;;;;5061672;28;20025;-95
2021/05/27 08:35:47;;;;;;;9.77;5.65;;;10.60;99.90;;;;;;5065675;28;20033;-95
2021/05/27 08:38:22;;;;;;;12.63;5.53;;;10.60;99.90;;;;;;5056282;28;20021;-94
2021/05/27 08:40:57;;;;;;;10.52;5.70;;;10.60;99.90;;;;;;5072451;28;20070;-92
2021/05/27 08:43:23;;;;;;;13.02;5.50;;;10.60;99.90;;;;;;5067766;28;20288;-95
2021/05/27 08:45:52;;;;;;;10.20;5.97;;;10.60;99.90;;;;;;5065122;28;20349;-95
2021/05/27 08:48:19;;;;;;;13.52;5.85;;;10.70;99.90;;;;;;5069302;28;20020;-94
2021/05/27 08:50:59;;;;;;;12.88;6.25;;;10.70;99.90;;;;;;5059840;28;20025;-95
2021/05/27 08:53:32;;;;;;;12.07;5.57;;;10.70;99.90;;;;;;5055419;28;20032;-93
2021/05/27 08:56:00;;;;;;;15.90;7.15;;;10.80;99.90;;;;;;5046555;28;20500;-96
2021/05/27 08:58:26;;;;;;;13.32;6.47;;;10.80;99.90;;;;;;5054785;28;20041;-95
2021/05/27 09:01:19;;;;;;;12.85;6.50;;;10.90;99.90;;;;;;5071456;28;20039;-94
2021/05/27 09:03:46;;;;;;;12.32;5.95;;;10.90;99.90;;;;;;5064417;28;20029;-95
2021/05/27 09:06:49;;;;;;;10.30;5.53;;;11.00;99.90;;;;;;5063893;28;20040;-95
2021/05/27 09:09:55;;;;;;;12.45;6.18;;;11.00;99.90;;;;;;5065993;28;20057;-94
2021/05/27 09:12:48;;;;;;;13.63;6.25;;;11.00;99.90;;;;;;5058753;28;20044;-94
2021/05/27 09:15:21;;;;;;;12.82;5.80;;;10.90;99.90;;;;;;5066995;28;20079;-94
2021/05/27 09:17:51;;;;;;;;;;;10.90;99.90;;;;;;5055743;28;20028;-95
2021/05/27 09:20:30;;;;;;;12.13;6.38;;;10.90;99.90;;;;;;5054919;28;20384;-94
2021/05/27 09:23:21;;;;;;;12.65;6.60;;;10.90;99.90;;;;;;5040325;28;20041;-93
2021/05/27 09:26:16;;;;;;;13.23;6.38;;;10.80;99.90;;;;;;5063921;28;20028;-95
2021/05/27 09:28:48;;;;;;;13.77;6.28;;;10.80;99.90;;;;;;5067309;28;20036;-95
2021/05/27 09:31:22;;;;;;;19.88;7.38;;;10.80;99.90;;;;;;5042565;28;20048;-95
2021/05/27 09:34:28;;;;;;;17.98;8.00;;;10.80;99.90;;;;;;5075598;28;20377;-94
2021/05/27 09:37:03;;;;;;;13.52;6.68;;;10.80;99.90;;;;;;5029931;28;20033;-93
2021/05/27 09:39:46;;;;;;;12.60;6.65;;;11.00;99.90;;;;;;5055406;28;20048;-95
2021/05/27 09:42:25;;;;;;;16.75;7.43;;;11.10;99.90;;;;;;5069048;28;20029;-92
2021/05/27 09:45:18;;;;;;;14.55;6.60;;;11.10;99.90;;;;;;5065384;28;20059;-94
2021/05/27 09:48:00;;;;;;;13.35;6.53;;;11.00;99.90;;;;;;5076083;28;20040;-93
2021/05/27 09:50:35;;;;;;;13.60;6.20;;;11.10;99.90;;;;;;5074773;28;20064;-93
2021/05/27 09:53:46;;;;;;;15.82;7.25;;;11.00;99.90;;;;;;5076577;28;20422;-91
2021/05/27 09:57:07;;;;;;;;;;;;;;;;;;;;;
2021/05/27 09:59:58;;;;;;;19.00;7.88;;;11.00;99.90;;;;;;5067577;28;20400;-94
2021/05/27 10:03:17;;;;;;;16.30;8.15;;;11.00;99.90;;;;;;5062115;28;20020;-93
2021/05/27 10:06:57;;;;;;;;;;;;;;;;;;;;;
2021/05/27 10:13:10;;;;;;;14.40;6.75;;;11.10;99.90;;;;;;5009261;28;20034;-93
2021/05/27 10:15:47;;;;;;;17.08;7.18;;;11.30;99.90;;;;;;5015551;28;20049;-94
2021/05/27 10:18:32;;;;;;;;;;;;;;;;;;;;;
2021/05/27 10:21:18;;;;;;;18.48;7.88;;;11.30;99.90;;;;;;5018834;28;20245;-95
2021/05/27 10:24:36;;;;;;;;;;;;;;;;;;;;;
2021/05/27 10:27:18;;;;;;;;;;;;;;;;;;;;;
2021/05/27 10:29:52;;;;;;;19.23;9.02;;;11.70;99.90;;;;;;4993919;28;20047;-95
2021/05/27 10:32:29;;;;;;;18.50;9.30;;;12.00;99.90;;;;;;4994474;28;20368;-93
2021/05/27 10:35:00;;;;;;;23.10;9.30;;;12.10;99.90;;;;;;5012007;28;20026;-93
2021/05/27 10:37:38;;;;;;;18.95;8.85;;;12.20;99.90;;;;;;5012544;28;20038;-92
2021/05/27 10:40:22;;;;;;;19.58;9.52;;;12.20;99.90;;;;;;5071630;28;20036;-93
2021/05/27 10:43:11;;;;;;;15.60;8.30;;;12.10;99.90;;;;;;5073539;28;20028;-93
2021/05/27 10:46:07;;;;;;;18.50;9.75;;;12.10;99.90;;;;;;5070643;28;20073;-93
2021/05/27 10:48:50;;;;;;;17.75;9.30;;;12.00;99.90;;;;;;5057213;28;20021;-94
2021/05/27 10:54:08;;;;;;;15.45;7.80;;;11.80;99.90;;;;;;5054412;28;20036;-93
2021/05/27 10:56:43;;;;;;;19.38;8.57;;;11.80;99.90;;;;;;5053442;28;20392;-93
2021/05/27 10:59:21;;;;;;;17.85;8.48;;;11.80;99.90;;;;;;5053315;28;20029;-94
2021/05/27 11:01:51;;;;;;;14.18;7.85;;;11.70;99.90;;;;;;5052965;28;20036;-93
2021/05/27 11:04:34;;;;;;;14.68;7.75;;;11.70;99.90;;;;;;5054554;28;20474;-94
2021/05/27 11:07:24;;;;;;;19.05;9.07;;;11.70;99.90;;;;;;5073700;28;20055;-94
2021/05/27 11:09:54;;;;;;;16.10;8.50;;;11.70;99.90;;;;;;5073157;28;20032;-95
2021/05/27 11:12:26;;;;;;;16.95;8.30;;;11.70;99.90;;;;;;5072796;28;20087;-92
2021/05/27 11:14:54;;;;;;;14.35;8.20;;;11.70;99.90;;;;;;5071005;28;20048;-94
2021/05/27 11:17:24;;;;;;;18.60;8.20;;;11.70;99.90;;;;;;5071878;28;20032;-94
2021/05/27 11:20:06;;;;;;;14.93;8.50;;;11.70;99.90;;;;;;5062795;28;20100;-94
2021/05/27 11:22:34;;;;;;;13.75;8.00;;;11.70;99.90;;;;;;5052564;28;20130;-93
2021/05/27 11:25:30;;;;;;;15.05;7.80;;;11.70;99.90;;;;;;5069432;28;20035;-94
2021/05/27 11:27:57;;;;;;;16.52;8.77;;;11.90;99.90;;;;;;5071810;28;20035;-93
2021/05/27 11:30:52;;;;;;;17.30;8.85;;;11.90;99.90;;;;;;5059347;28;20087;-95
2021/05/27 11:33:42;;;;;;;13.23;6.68;;;12.00;99.90;;;;;;5064835;28;20101;-95
2021/05/27 11:36:15;;;;;;;14.32;7.10;;;12.10;99.90;;;;;;5063835;28;20029;-95
2021/05/27 11:38:41;;;;;;;;;;;12.10;99.90;;;;;;5049679;28;20024;-94
2021/05/27 11:41:19;;;;;;;16.58;7.75;;;12.00;99.90;;;;;;5057652;28;19908;-94
2021/05/27 11:43:49;;;;;;;11.82;8.10;;;12.10;99.90;;;;;;5068702;28;20024;-94
2021/05/27 11:46:17;;;;;;;13.45;8.40;;;12.20;99.90;;;;;;5039411;28;20044;-95
2021/05/27 11:48:56;;;;;;;13.45;7.45;;;12.20;99.90;;;;;;5064158;28;20036;-95
2021/05/27 11:51:33;;;;;;;16.02;7.93;;;12.20;99.90;;;;;;5068123;28;20626;-95
2021/05/27 11:54:08;;;;;;;13.68;7.43;;;12.30;99.90;;;;;;5062489;28;20024;-94
2021/05/27 11:56:47;;;;;;;9.35;6.40;;;12.40;99.90;;;;;;5080309;28;20027;-95
2021/05/27 11:59:30;;;;;;;11.88;6.50;;;12.50;99.90;;;;;;5059640;28;20132;-94
2021/05/27 12:02:00;;;;;;;10.68;6.50;;;12.60;99.90;;;;;;5055505;28;20029;-94
2021/05/27 12:04:27;;;;;;;12.20;7.93;;;12.70;99.90;;;;;;5039086;28;20083;-94
2021/05/27 12:07:01;;;;;;;13.18;7.82;;;12.90;99.90;;;;;;5063498;28;20439;-94
2021/05/27 12:09:30;;;;;;;16.02;8.55;;;12.90;99.90;;;;;;5064213;28;20044;-93
2021/05/27 12:12:10;;;;;;;12.98;7.68;;;13.00;99.90;;;;;;5064600;28;20029;-92
2021/05/27 12:14:45;;;;;;;17.02;8.68;;;13.20;99.90;;;;;;5061066;28;20096;-92
2021/05/27 12:17:25;;;;;;;13.13;7.25;;;13.30;99.90;;;;;;5055497;28;20032;-93
2021/05/27 12:20:04;;;;;;;9.20;6.70;;;13.40;99.90;;;;;;5065361;28;20027;-93
2021/05/27 12:25:10;;;;;;;13.32;7.43;;;13.40;99.90;;;;;;4148093;23;20071;-84
2021/05/27 12:27:44;;;;;;;12.18;6.00;;;13.30;99.90;;;;;;4948354;28;20151;-86
2021/05/27 12:30:22;;;;;;;11.20;6.00;;;13.10;99.90;;;;;;4962786;28;20125;-87
2021/05/27 12:32:50;;;;;;;9.77;5.43;;;12.90;99.90;;;;;;4949676;28;20055;-86
2021/05/27 12:35:22;;;;;;;8.40;5.70;;;12.70;99.90;;;;;;4968879;28;20061;-90
2021/05/27 12:37:49;;;;;;;10.63;5.55;;;12.60;99.90;;;;;;4968143;28;20042;-87
2021/05/27 12:40:30;;;;;;;7.95;4.57;;;12.50;99.90;;;;;;4967754;28;20023;-87
2021/05/27 12:43:03;;;;;;;10.95;5.45;;;12.60;99.90;;;;;;4952057;28;20027;-86
2021/05/27 12:45:37;;;;;;;12.18;5.13;;;12.60;99.90;;;;;;4969507;28;20035;-87
2021/05/27 12:48:08;;;;;;;;;;;12.70;99.90;;;;;;4968842;28;20030;-86
2021/05/27 12:50:36;;;;;;;11.55;5.38;;;12.70;99.90;;;;;;4954558;28;19941;-86
2021/05/27 12:53:03;;;;;;;11.82;5.10;;;12.70;99.90;;;;;;4969661;28;20138;-90
2021/05/27 12:55:32;;;;;;;6.65;4.70;;;12.80;99.90;;;;;;4949065;28;20027;-87
2021/05/27 12:57:59;;;;;;;9.20;5.05;;;12.80;99.90;;;;;;4949227;28;20061;-87
2021/05/27 13:00:26;;;;;;;7.90;4.20;;;12.80;99.90;;;;;;4948656;28;20136;-87
2021/05/27 13:03:07;;;;;;;13.02;5.07;;;12.90;99.90;;;;;;4946703;28;20026;-89
2021/05/27 13:05:33;;;;;;;10.57;5.13;;;13.00;99.90;;;;;;4962662;28;20027;-89
2021/05/27 13:08:00;;;;;;;10.55;5.32;;;13.10;99.90;;;;;;4951039;28;20044;-89
2021/05/27 13:10:29;;;;;;;7.15;4.65;;;13.20;99.90;;;;;;4950319;28;20027;-82
2021/05/27 13:12:55;;;;;;;9.60;4.28;;;13.20;99.90;;;;;;4948691;28;20023;-91
2021/05/27 13:15:21;;;;;;;10.60;4.93;;;13.30;99.90;;;;;;4954423;28;20097;-87
2021/05/27 13:18:07;;;;;;;8.65;4.50;;;13.40;99.90;;;;;;4968463;28;20031;-86
2021/05/27 13:21:04;;;;;;;7.85;3.53;;;13.40;99.90;;;;;;4943029;28;20035;-87
2021/05/27 13:23:32;;;;;;;8.20;3.35;;;13.40;99.90;;;;;;4952890;28;20146;-87
2021/05/27 13:26:32;;;;;;;8.57;3.38;;;13.40;99.90;;;;;;4965602;28;20051;-86
2021/05/27 13:29:03;;;;;;;8.88;3.00;;;13.20;99.90;;;;;;4948928;28;20050;-86
2021/05/27 13:31:34;;;;;;;9.10;2.85;;;13.00;99.90;;;;;;4960508;28;20035;-88
2021/05/27 13:33:59;;;;;;;5.60;2.00;;;12.90;99.90;;;;;;4972057;28;20027;-87